Time;durP1;ratioP1;P1;durP2;ratioP2;P2;SDS_P1;SDS_P2;PMS_P1;PMS_P2;Temp;Humidity;BMP_temperature;BMP_pressure;BME280_temperature;BME280_humidity;BME280_pressure;Samples;Min_cycle;Max_cycle;Signal;HPM_P1;HPM_P2
2023/12/01 00:01:07;;;;;;;78.60;34.95;;;2.70;99.90;;;3.01;75.03;99269.47;4997029;28;20038;-84
2023/12/01 00:03:35;;;;;;;74.60;34.10;;;2.70;99.90;;;3.02;75.28;99265.81;5012830;28;20042;-84
2023/12/01 00:06:02;;;;;;;83.00;36.00;;;2.70;99.90;;;2.98;74.47;99269.06;4996236;28;20081;-84
2023/12/01 00:08:30;;;;;;;73.22;34.50;;;2.70;99.90;;;2.98;74.86;99275.16;4999105;28;20046;-84
2023/12/01 00:10:57;;;;;;;68.88;32.85;;;2.70;99.90;;;2.91;73.84;99271.63;4997924;28;20046;-84
2023/12/01 00:13:26;;;;;;;70.20;33.60;;;2.60;99.90;;;2.89;73.65;99288.63;4994965;28;20053;-84
2023/12/01 00:15:53;;;;;;;70.22;33.88;;;2.60;99.90;;;2.94;73.64;99279.16;4979999;28;20047;-84
2023/12/01 00:18:21;;;;;;;72.50;34.38;;;2.70;99.90;;;2.93;73.70;99285.44;4979428;28;20077;-84
2023/12/01 00:20:49;;;;;;;70.60;34.92;;;2.70;99.90;;;2.84;73.22;99284.75;4997039;28;20050;-84
2023/12/01 00:23:17;;;;;;;74.15;35.17;;;2.60;99.90;;;2.82;73.84;99289.38;5014592;28;20042;-84
2023/12/01 00:25:44;;;;;;;76.80;34.22;;;2.50;99.90;;;2.85;73.91;99282.94;4998910;28;20054;-84
2023/12/01 00:28:11;;;;;;;70.38;33.95;;;2.60;99.90;;;2.86;74.53;99287.19;4981732;28;20069;-84
2023/12/01 00:30:42;;;;;;;76.32;35.38;;;2.60;99.90;;;2.86;73.75;99281.09;5013899;28;20120;-84
2023/12/01 00:33:09;;;;;;;73.32;33.35;;;2.60;99.90;;;2.90;74.18;99285.81;4982212;28;20402;-84
2023/12/01 00:35:37;;;;;;;74.80;34.83;;;2.60;99.90;;;2.92;74.16;99291.69;4997788;28;20053;-84
2023/12/01 00:38:05;;;;;;;76.97;33.20;;;2.70;99.90;;;2.94;73.71;99296.78;4997732;28;20077;-84
2023/12/01 00:40:33;;;;;;;76.82;36.22;;;2.70;99.90;;;2.99;73.67;99307.56;4997328;28;20149;-85
2023/12/01 00:43:01;;;;;;;76.40;35.35;;;2.70;99.90;;;2.98;73.79;99298.84;4980369;28;20067;-84
2023/12/01 00:45:29;;;;;;;78.10;34.97;;;2.70;99.90;;;2.96;73.66;99302.66;4982796;28;20498;-84
2023/12/01 00:47:58;;;;;;;71.30;35.22;;;2.70;99.90;;;2.96;73.48;99300.84;5013777;28;20046;-84
2023/12/01 00:50:26;;;;;;;77.07;35.72;;;2.70;99.90;;;2.99;73.58;99310.19;4998490;28;20062;-84
2023/12/01 00:52:54;;;;;;;71.72;33.78;;;2.70;99.90;;;2.99;74.00;99308.38;4998263;28;20047;-84
2023/12/01 00:55:22;;;;;;;73.88;34.25;;;2.70;99.90;;;2.96;73.50;99307.94;4997758;28;20506;-84
2023/12/01 00:57:53;;;;;;;80.03;37.03;;;2.70;99.90;;;2.99;73.91;99312.81;4997785;28;20053;-84
2023/12/01 01:00:22;;;;;;;78.68;36.08;;;2.70;99.90;;;2.98;73.42;99314.66;4962426;28;20101;-84
2023/12/01 01:02:50;;;;;;;74.63;35.05;;;2.70;99.90;;;2.81;73.21;99318.53;4978666;28;20070;-84
2023/12/01 01:05:19;;;;;;;74.30;33.33;;;2.60;99.90;;;2.84;73.42;99312.91;4946872;28;20051;-84
2023/12/01 01:07:46;;;;;;;69.82;31.63;;;2.60;99.90;;;2.84;73.28;99316.34;4978507;28;20059;-84
2023/12/01 01:10:14;;;;;;;73.30;32.00;;;2.60;99.90;;;2.86;73.42;99318.78;4991989;28;20074;-84
2023/12/01 01:12:41;;;;;;;66.47;31.05;;;2.60;99.90;;;2.88;73.23;99319.44;4999262;28;20049;-84
2023/12/01 01:15:10;;;;;;;66.50;31.38;;;2.60;99.90;;;2.91;73.34;99326.94;4997832;28;20050;-84
2023/12/01 01:17:38;;;;;;;71.65;32.65;;;2.60;99.90;;;2.93;73.44;99322.31;4985554;28;20031;-84
2023/12/01 01:20:09;;;;;;;70.68;33.00;;;2.70;99.90;;;2.96;73.44;99321.91;4962573;28;20105;-84
2023/12/01 01:22:39;;;;;;;;;;;2.70;99.90;;;2.96;73.53;99324.53;4994999;28;20042;-84
2023/12/01 01:25:09;;;;;;;67.15;32.08;;;2.70;99.90;;;2.95;73.36;99325.53;4979265;28;19922;-84
2023/12/01 01:27:37;;;;;;;65.97;30.47;;;2.70;99.90;;;2.91;73.71;99324.28;4980589;28;20042;-84
2023/12/01 01:30:06;;;;;;;65.90;29.17;;;2.70;99.90;;;2.88;72.56;99332.59;4962836;28;20047;-84
2023/12/01 01:32:34;;;;;;;62.08;28.85;;;2.60;99.90;;;2.84;72.20;99339.22;4979984;28;20042;-84
2023/12/01 01:35:02;;;;;;;60.00;30.63;;;2.60;99.90;;;2.79;72.29;99334.53;4980513;28;20039;-84
2023/12/01 01:37:30;;;;;;;62.95;29.02;;;2.60;99.90;;;2.85;72.32;99332.97;4980021;28;20039;-84
2023/12/01 01:39:59;;;;;;;62.78;29.92;;;2.60;99.90;;;2.86;72.08;99331.94;4980041;28;20054;-84
2023/12/01 01:42:26;;;;;;;63.08;29.35;;;2.60;99.90;;;2.90;72.03;99332.41;4982835;28;20466;-84
2023/12/01 01:44:54;;;;;;;56.33;29.05;;;3.00;99.90;;;2.86;71.28;99336.41;4982329;28;20047;-84
2023/12/01 01:47:23;;;;;;;60.65;29.70;;;2.60;99.90;;;2.88;70.94;99331.75;4982617;28;20130;-84
2023/12/01 01:49:50;;;;;;;60.50;29.60;;;2.60;99.90;;;2.84;71.20;99334.78;4983357;28;20047;-84
2023/12/01 01:52:20;;;;;;;62.60;30.20;;;2.60;99.90;;;2.78;70.43;99329.44;4982005;28;20043;-84
2023/12/01 01:54:49;;;;;;;61.78;30.27;;;2.60;99.90;;;2.73;70.71;99342.34;4982886;28;20050;-84
2023/12/01 01:57:18;;;;;;;62.40;29.77;;;2.50;99.90;;;2.78;71.00;99350.50;4982772;28;20625;-84
2023/12/01 01:59:47;;;;;;;63.90;30.52;;;2.60;99.90;;;2.77;70.47;99338.34;4998513;28;20089;-84
2023/12/01 02:02:14;;;;;;;60.20;28.42;;;2.60;99.90;;;2.73;70.67;99339.72;4950107;28;20402;-84
2023/12/01 02:04:45;;;;;;;61.08;30.40;;;2.50;99.90;;;2.76;71.06;99337.53;4988008;28;20584;-84
2023/12/01 02:07:26;;;;;;;58.42;28.80;;;2.60;99.90;;;2.78;70.76;99351.34;4985930;28;20050;-84
2023/12/01 02:09:55;;;;;;;62.35;28.27;;;2.60;99.90;;;2.78;70.22;99340.81;4986061;28;20065;-84
2023/12/01 02:12:24;;;;;;;63.63;29.63;;;2.50;99.90;;;2.78;70.54;99348.69;5002527;28;20046;-84
2023/12/01 02:14:52;;;;;;;61.28;29.25;;;2.60;99.90;;;2.77;70.22;99348.88;5002335;28;20442;-84
2023/12/01 02:17:19;;;;;;;59.10;28.27;;;2.60;99.90;;;2.73;70.04;99351.09;5003241;28;20050;-84
2023/12/01 02:19:47;;;;;;;58.63;27.27;;;2.50;99.90;;;2.76;70.40;99345.44;4984972;28;20061;-84
2023/12/01 02:22:16;;;;;;;57.50;28.13;;;2.60;99.90;;;2.75;69.90;99345.63;5003244;28;20058;-84
2023/12/01 02:24:43;;;;;;;60.28;28.95;;;2.50;99.90;;;2.76;70.24;99341.97;4994972;28;20046;-85
2023/12/01 02:27:11;;;;;;;66.57;31.60;;;2.50;99.90;;;2.74;70.20;99347.44;4982698;28;20058;-85
2023/12/01 02:29:39;;;;;;;66.93;29.95;;;2.50;99.90;;;2.75;71.06;99341.16;4984170;28;20047;-85
2023/12/01 02:32:08;;;;;;;64.47;30.30;;;2.40;99.90;;;2.79;71.03;99352.97;4983338;28;20475;-84
2023/12/01 02:34:36;;;;;;;72.50;31.15;;;2.50;99.90;;;2.75;70.97;99356.97;4984916;28;20051;-84
2023/12/01 02:37:03;;;;;;;67.43;31.33;;;2.50;99.90;;;2.71;71.15;99360.16;4983556;28;20082;-84
2023/12/01 02:39:36;;;;;;;70.38;30.58;;;2.40;99.90;;;2.77;71.90;99349.69;4983447;28;20046;-84
2023/12/01 02:42:04;;;;;;;66.50;30.10;;;2.50;99.90;;;2.80;71.47;99361.66;4983493;28;20050;-84
2023/12/01 02:44:32;;;;;;;69.97;31.40;;;2.50;99.90;;;2.83;71.68;99363.91;4999220;28;20053;-84
2023/12/01 02:47:00;;;;;;;65.30;30.17;;;2.60;99.90;;;2.84;71.46;99360.28;4982561;28;20134;-84
2023/12/01 02:49:27;;;;;;;74.50;31.20;;;2.60;99.90;;;2.87;71.83;99365.16;4996606;28;20046;-84
2023/12/01 02:51:55;;;;;;;73.22;31.45;;;2.60;99.90;;;2.88;71.08;99368.63;5002479;28;20054;-84
2023/12/01 02:54:22;;;;;;;76.25;31.48;;;2.60;99.90;;;2.91;70.76;99349.81;5004410;28;20046;-84
2023/12/01 02:56:52;;;;;;;72.57;30.85;;;2.60;99.90;;;2.89;70.57;99350.00;4986520;28;20071;-84
2023/12/01 02:59:19;;;;;;;72.43;32.10;;;2.60;99.90;;;2.87;70.84;99348.56;5001901;28;20045;-84
2023/12/01 03:01:46;;;;;;;72.00;31.17;;;2.60;99.90;;;2.86;70.57;99344.31;4983061;28;20046;-84
2023/12/01 03:04:15;;;;;;;69.50;31.15;;;2.60;99.90;;;2.85;70.78;99351.38;4983875;28;20442;-84
2023/12/01 03:06:43;;;;;;;68.80;31.13;;;2.60;99.90;;;2.86;70.74;99347.75;4983142;28;20105;-84
2023/12/01 03:09:16;;;;;;;63.55;28.85;;;2.60;99.90;;;2.87;70.49;99349.38;4984228;28;20074;-84
2023/12/01 03:11:46;;;;;;;62.38;28.98;;;2.60;99.90;;;2.79;69.19;99346.88;5002849;28;20395;-84
2023/12/01 03:14:16;;;;;;;65.78;29.30;;;2.60;99.90;;;2.79;70.13;99352.16;5002848;28;20078;-84
2023/12/01 03:16:44;;;;;;;66.68;30.30;;;2.50;99.90;;;2.80;70.72;99343.25;5002667;28;20082;-84
2023/12/01 03:19:12;;;;;;;70.53;30.25;;;2.50;99.90;;;2.83;71.08;99341.06;5002422;28;20046;-84
2023/12/01 03:21:40;;;;;;;66.88;29.55;;;2.60;99.90;;;2.87;70.61;99341.47;5002737;28;20069;-84
2023/12/01 03:24:09;;;;;;;71.07;30.83;;;2.60;99.90;;;2.87;70.51;99341.47;4986767;28;20038;-84
2023/12/01 03:26:36;;;;;;;64.32;30.73;;;2.60;99.90;;;2.88;70.34;99351.03;5002384;28;20052;-84
2023/12/01 03:29:04;;;;;;;69.35;30.80;;;2.60;99.90;;;2.86;70.07;99350.38;5002668;28;20042;-84
2023/12/01 03:31:34;;;;;;;71.60;31.85;;;2.60;99.90;;;2.79;70.51;99357.41;5003017;28;20403;-84
2023/12/01 03:34:04;;;;;;;70.13;29.60;;;2.50;99.90;;;2.80;70.79;99351.94;5001643;28;20046;-84
2023/12/01 03:36:32;;;;;;;72.07;30.92;;;2.50;99.90;;;2.80;70.14;99359.84;5003707;28;20051;-84
2023/12/01 03:39:00;;;;;;;65.95;29.95;;;2.50;99.90;;;2.79;70.87;99352.16;5003122;28;20062;-84
2023/12/01 03:41:28;;;;;;;64.10;28.83;;;2.50;99.90;;;2.85;71.11;99359.28;5003347;28;20061;-84
2023/12/01 03:43:55;;;;;;;66.20;29.05;;;2.60;99.90;;;2.87;70.95;99359.09;5003112;28;20046;-84
2023/12/01 03:46:23;;;;;;;72.43;30.45;;;2.60;99.90;;;2.88;71.46;99361.56;5002970;28;20038;-84
2023/12/01 03:48:52;;;;;;;57.70;27.15;;;2.60;99.90;;;2.89;71.42;99363.19;5003526;28;20046;-84
2023/12/01 03:51:20;;;;;;;63.67;26.85;;;2.70;99.90;;;2.90;70.82;99364.00;5003464;28;20046;-85
2023/12/01 03:53:48;;;;;;;59.65;27.25;;;2.70;99.90;;;2.94;70.87;99352.91;5004142;28;20042;-85
2023/12/01 03:56:16;;;;;;;60.17;25.27;;;2.70;99.90;;;2.93;69.98;99363.59;5004038;28;20055;-85
2023/12/01 03:58:44;;;;;;;62.50;26.17;;;2.60;99.90;;;2.94;70.70;99359.97;5005293;28;20113;-84
2023/12/01 04:01:12;;;;;;;58.10;25.52;;;2.70;99.90;;;2.93;70.36;99364.44;4992678;28;20039;-84
2023/12/01 04:03:40;;;;;;;55.72;26.08;;;2.70;99.90;;;2.91;70.11;99371.69;4987100;28;20054;-84
2023/12/01 04:06:10;;;;;;;56.58;25.92;;;2.70;99.90;;;2.93;70.47;99369.69;5006496;28;20049;-84
2023/12/01 04:08:37;;;;;;;55.58;26.27;;;2.70;99.90;;;2.92;70.13;99369.88;4988357;28;20062;-84
2023/12/01 04:11:07;;;;;;;54.50;24.95;;;2.70;99.90;;;2.94;70.33;99373.16;5004986;28;20046;-84
2023/12/01 04:13:34;;;;;;;54.95;24.98;;;2.70;99.90;;;2.90;69.95;99375.34;5006638;28;20560;-84
2023/12/01 04:16:02;;;;;;;54.20;24.88;;;2.70;99.90;;;2.92;69.58;99380.41;5005095;28;20038;-84
2023/12/01 04:18:34;;;;;;;50.28;23.05;;;2.70;99.90;;;2.93;69.94;99382.03;4978221;28;20053;-84
2023/12/01 04:21:08;;;;;;;52.30;23.20;;;2.70;99.90;;;2.91;69.51;99389.31;4969522;28;20130;-84
2023/12/01 04:23:37;;;;;;;51.17;23.80;;;2.70;99.90;;;2.94;69.90;99394.22;5001224;28;20039;-84
2023/12/01 04:26:06;;;;;;;52.22;25.13;;;2.70;99.90;;;2.93;69.81;99382.88;4990037;28;20129;-84
2023/12/01 04:28:35;;;;;;;53.67;25.20;;;2.70;99.90;;;2.92;69.69;99383.84;5002254;28;20081;-84
2023/12/01 04:31:05;;;;;;;52.35;24.83;;;2.70;99.90;;;2.91;69.92;99390.13;5001960;28;20105;-84
2023/12/01 04:33:32;;;;;;;57.97;25.42;;;2.70;99.90;;;2.93;69.78;99393.41;5000750;28;20054;-84
2023/12/01 04:36:06;;;;;;;57.22;26.35;;;2.70;99.90;;;2.88;69.80;99398.41;5000813;28;20054;-84
2023/12/01 04:38:36;;;;;;;57.70;26.70;;;2.60;99.90;;;2.87;70.40;99396.75;5002047;28;20129;-84
2023/12/01 04:41:09;;;;;;;55.55;25.30;;;2.60;99.90;;;2.89;70.93;99397.41;5000853;28;20066;-83
2023/12/01 04:43:40;;;;;;;55.58;25.55;;;2.70;99.90;;;2.84;70.77;99394.53;4952338;28;20605;-83
2023/12/01 04:46:11;;;;;;;55.45;25.08;;;2.60;99.90;;;2.84;70.88;99403.22;5001108;28;20126;-83
2023/12/01 04:48:38;;;;;;;54.55;25.38;;;2.60;99.90;;;2.88;70.63;99395.78;4998939;28;20050;-83
2023/12/01 04:51:08;;;;;;;59.67;26.58;;;2.60;99.90;;;2.74;70.26;99397.47;5000429;28;20121;-83
2023/12/01 04:53:38;;;;;;;56.15;26.77;;;2.60;99.90;;;2.74;70.91;99396.66;4996280;28;20138;-83
2023/12/01 04:56:07;;;;;;;57.00;26.50;;;2.50;99.90;;;2.76;70.77;99415.69;4979909;28;20055;-83
2023/12/01 04:58:35;;;;;;;60.63;28.13;;;2.50;99.90;;;2.66;70.74;99413.38;4930891;28;20061;-83
2023/12/01 05:01:03;;;;;;;64.78;29.35;;;2.50;99.90;;;2.55;71.04;99408.59;4980823;28;20058;-83
2023/12/01 05:03:30;;;;;;;67.47;30.00;;;2.40;99.90;;;2.51;71.21;99408.13;4963992;28;20101;-83
2023/12/01 05:05:58;;;;;;;70.75;31.05;;;2.30;99.90;;;2.56;71.82;99412.84;4981094;28;20410;-83
2023/12/01 05:08:27;;;;;;;72.70;32.03;;;2.50;99.90;;;2.62;72.09;99409.47;4995469;28;20074;-83
2023/12/01 05:10:56;;;;;;;66.28;30.38;;;2.40;99.90;;;2.60;71.80;99416.75;4979198;28;20055;-83
2023/12/01 05:13:24;;;;;;;66.25;30.75;;;2.40;99.90;;;2.54;71.83;99415.69;4980541;28;20426;-83
2023/12/01 05:15:53;;;;;;;63.50;29.02;;;2.40;99.90;;;2.43;71.42;99428.47;4966794;28;20051;-83
2023/12/01 05:18:22;;;;;;;63.80;29.10;;;2.20;99.90;;;2.38;71.55;99422.94;4982487;28;20391;-83
2023/12/01 05:20:49;;;;;;;62.63;27.98;;;2.20;99.90;;;2.36;71.84;99422.34;5000161;28;20051;-84
2023/12/01 05:23:17;;;;;;;59.88;27.63;;;2.20;99.90;;;2.42;72.38;99426.84;4998776;28;20046;-83
2023/12/01 05:25:46;;;;;;;60.03;27.25;;;2.20;99.90;;;2.48;72.08;99434.00;5000306;28;20125;-84
2023/12/01 05:28:15;;;;;;;47.67;23.25;;;2.30;99.90;;;2.44;72.17;99430.94;5001211;28;20486;-84
2023/12/01 05:30:46;;;;;;;43.97;21.90;;;2.20;99.90;;;2.49;72.21;99431.22;5017878;28;20038;-84
2023/12/01 05:33:14;;;;;;;37.55;18.92;;;2.30;99.90;;;2.50;71.76;99437.28;5002307;28;20081;-83
2023/12/01 05:35:42;;;;;;;35.25;16.75;;;2.30;99.90;;;2.50;71.01;99435.47;5001456;28;20046;-85
2023/12/01 05:38:10;;;;;;;30.05;15.63;;;2.30;99.90;;;2.53;71.03;99445.59;4997978;28;20034;-85
2023/12/01 05:40:38;;;;;;;31.88;15.32;;;2.30;99.90;;;2.58;71.09;99445.06;4997071;28;20470;-85
2023/12/01 05:43:08;;;;;;;27.52;14.65;;;2.40;99.90;;;2.62;71.29;99451.59;5004539;28;20069;-82
2023/12/01 05:45:37;;;;;;;28.10;15.48;;;2.40;99.90;;;2.60;71.24;99447.53;4984925;28;20054;-85
2023/12/01 05:48:06;;;;;;;29.17;13.75;;;2.40;99.90;;;2.63;71.13;99444.50;4979138;28;20034;-85
2023/12/01 05:50:34;;;;;;;26.65;13.77;;;2.40;99.90;;;2.65;71.12;99455.69;4979776;28;20077;-85
2023/12/01 05:53:06;;;;;;;24.75;13.52;;;2.40;99.90;;;2.63;70.69;99450.56;4979752;28;20043;-84
2023/12/01 05:55:35;;;;;;;19.75;11.20;;;2.60;99.90;;;2.66;70.83;99454.66;4980516;28;20053;-85
2023/12/01 05:58:05;;;;;;;21.45;11.88;;;2.40;99.90;;;2.66;70.25;99458.13;4963269;28;20089;-85
2023/12/01 06:00:34;;;;;;;24.02;12.93;;;2.40;99.90;;;2.63;70.05;99469.00;4978688;28;20417;-85
2023/12/01 06:03:06;;;;;;;23.00;12.35;;;2.40;99.90;;;2.64;70.73;99475.09;4984602;28;20043;-82
2023/12/01 06:05:36;;;;;;;28.95;13.15;;;2.40;99.90;;;2.46;70.05;99464.97;5003442;28;20053;-82
2023/12/01 06:08:08;;;;;;;24.85;12.43;;;2.20;99.90;;;2.45;70.06;99472.03;4977802;28;20186;-85
2023/12/01 06:10:36;;;;;;;27.17;13.77;;;2.20;99.90;;;2.45;70.53;99471.22;4979612;28;20051;-85
2023/12/01 06:13:04;;;;;;;25.70;13.40;;;2.20;99.90;;;2.46;70.02;99473.66;4984599;28;20047;-85
2023/12/01 06:15:31;;;;;;;27.13;13.45;;;2.20;99.90;;;2.33;69.56;99473.47;4970367;28;20070;-82
2023/12/01 06:18:02;;;;;;;27.45;12.93;;;2.10;99.90;;;2.27;70.45;99480.28;5004187;28;20057;-82
2023/12/01 06:20:31;;;;;;;29.83;14.35;;;2.00;99.90;;;2.35;70.50;99475.97;4972807;28;20050;-82
2023/12/01 06:23:00;;;;;;;28.92;13.80;;;2.10;99.90;;;2.44;71.04;99480.09;5007456;28;20422;-82
2023/12/01 06:25:30;;;;;;;30.80;14.63;;;2.20;99.90;;;2.50;70.96;99479.38;5007780;28;20097;-84
2023/12/01 06:28:01;;;;;;;30.75;14.13;;;2.30;99.90;;;2.53;70.95;99490.34;5000270;28;20050;-83
2023/12/01 06:30:33;;;;;;;34.58;15.50;;;2.30;99.90;;;2.45;70.41;99495.72;4999398;28;20049;-85
2023/12/01 06:33:02;;;;;;;34.60;15.10;;;2.20;99.90;;;2.49;70.47;99498.78;4997682;28;20062;-85
2023/12/01 06:35:31;;;;;;;38.97;16.15;;;2.30;99.90;;;2.52;70.91;99507.13;4996667;28;20041;-85
2023/12/01 06:37:59;;;;;;;37.25;16.67;;;2.30;99.90;;;2.53;70.32;99506.13;5012278;28;20038;-86
2023/12/01 06:40:26;;;;;;;37.90;17.33;;;2.30;99.90;;;2.51;70.41;99509.97;4995440;28;20430;-85
2023/12/01 06:42:56;;;;;;;39.88;17.27;;;2.30;99.90;;;2.49;69.90;99514.56;4995553;28;20042;-85
2023/12/01 06:45:26;;;;;;;41.60;17.73;;;2.20;99.90;;;2.48;70.16;99515.56;4998300;28;20050;-85
2023/12/01 06:47:54;;;;;;;37.92;17.58;;;2.20;99.90;;;2.51;70.41;99508.13;5011861;28;20557;-85
2023/12/01 06:50:23;;;;;;;46.80;19.10;;;2.20;99.90;;;2.50;70.41;99521.50;5011135;28;20057;-84
2023/12/01 06:52:53;;;;;;;39.55;17.13;;;2.30;99.90;;;2.52;70.24;99520.28;5012390;28;20148;-86
2023/12/01 06:55:21;;;;;;;42.97;18.98;;;2.30;99.90;;;2.53;70.50;99527.19;4997647;28;20047;-85
2023/12/01 06:57:50;;;;;;;40.50;18.70;;;2.30;99.90;;;2.48;70.24;99529.53;4997678;28;20446;-84
2023/12/01 07:00:29;;;;;;;46.45;19.77;;;2.20;99.90;;;2.49;70.63;99520.69;4999884;28;20097;-84
2023/12/01 07:02:57;;;;;;;45.40;19.98;;;2.20;99.90;;;2.45;70.44;99531.75;4999091;28;20093;-83
2023/12/01 07:05:25;;;;;;;43.15;19.63;;;2.20;99.90;;;2.45;70.96;99537.00;4999308;28;20042;-83
2023/12/01 07:07:56;;;;;;;39.35;18.30;;;2.20;99.90;;;2.38;70.31;99544.78;4997444;28;20057;-84
2023/12/01 07:10:24;;;;;;;41.83;19.23;;;2.10;99.90;;;2.37;70.62;99553.69;4997997;28;20528;-84
2023/12/01 07:12:53;;;;;;;44.08;18.58;;;2.10;99.90;;;2.27;70.70;99548.69;5010452;28;20498;-84
2023/12/01 07:15:21;;;;;;;43.17;18.20;;;2.00;99.90;;;2.28;70.92;99557.41;4979916;28;20046;-84
2023/12/01 07:17:51;;;;;;;42.65;19.52;;;2.00;99.90;;;2.33;70.78;99562.94;4995622;28;20073;-84
2023/12/01 07:20:19;;;;;;;44.67;19.75;;;2.10;99.90;;;2.34;70.95;99559.31;4998966;28;20050;-84
2023/12/01 07:22:49;;;;;;;42.60;18.63;;;2.10;99.90;;;2.40;71.24;99563.88;4999144;28;20046;-83
2023/12/01 07:25:23;;;;;;;39.78;18.58;;;2.10;99.90;;;2.40;70.60;99574.38;5014215;28;20050;-83
2023/12/01 07:27:54;;;;;;;37.83;17.55;;;2.10;99.90;;;2.40;70.52;99557.78;4997728;28;20050;-83
2023/12/01 07:30:22;;;;;;;33.88;15.32;;;2.10;99.90;;;2.42;70.79;99553.16;5001559;28;20057;-83
2023/12/01 07:32:51;;;;;;;35.22;16.05;;;2.10;99.90;;;2.43;70.47;99560.03;5001218;28;20498;-84
2023/12/01 07:35:19;;;;;;;31.05;15.57;;;2.20;99.90;;;2.41;70.43;99564.69;5001099;28;20054;-84
2023/12/01 07:37:48;;;;;;;31.15;14.65;;;2.20;99.90;;;2.43;70.39;99567.94;4993375;28;20047;-84
2023/12/01 07:40:19;;;;;;;31.27;14.57;;;2.20;99.90;;;2.42;69.92;99571.56;4977443;28;20050;-84
2023/12/01 07:42:48;;;;;;;27.65;13.38;;;2.20;99.90;;;2.42;69.82;99568.94;4996524;28;20051;-84
2023/12/01 07:45:17;;;;;;;23.77;12.68;;;2.20;99.90;;;2.37;69.54;99560.78;4983931;28;20101;-84
2023/12/01 07:47:45;;;;;;;22.25;11.57;;;2.10;99.90;;;2.36;69.66;99572.28;4987295;28;20057;-84
2023/12/01 07:50:14;;;;;;;25.65;12.10;;;2.10;99.90;;;2.25;69.06;99571.75;4998718;28;20533;-85
2023/12/01 07:52:42;;;;;;;27.95;12.07;;;2.00;99.90;;;2.19;69.36;99564.53;4987560;28;20108;-84
2023/12/01 07:55:10;;;;;;;30.48;11.77;;;1.90;99.90;;;2.24;69.48;99564.81;4997873;28;20050;-84
2023/12/01 07:57:39;;;;;;;27.95;13.50;;;2.00;99.90;;;2.24;68.99;99564.00;5005369;28;20070;-84
2023/12/01 08:00:14;;;;;;;29.02;12.88;;;2.00;99.90;;;2.20;68.82;99568.03;4992949;28;20051;-84
2023/12/01 08:02:41;;;;;;;23.38;12.15;;;1.90;99.90;;;2.21;69.39;99562.56;4987161;28;20093;-84
2023/12/01 08:05:13;;;;;;;25.00;12.57;;;1.90;99.90;;;2.23;69.08;99567.66;4975333;28;20536;-84
2023/12/01 08:07:42;;;;;;;29.55;13.82;;;1.90;99.90;;;2.30;69.85;99565.94;4992990;28;20137;-84
2023/12/01 08:10:14;;;;;;;30.90;14.90;;;2.00;99.90;;;2.35;69.86;99574.13;4983884;28;20046;-84
2023/12/01 08:12:43;;;;;;;31.77;14.57;;;2.10;99.90;;;2.36;69.37;99574.94;4996578;28;20050;-84
2023/12/01 08:15:12;;;;;;;32.03;15.40;;;2.10;99.90;;;2.34;69.34;99575.09;4997711;28;20050;-84
2023/12/01 08:17:41;;;;;;;36.63;16.52;;;2.10;99.90;;;2.30;69.13;99576.47;4996547;28;20050;-84
2023/12/01 08:20:11;;;;;;;33.25;15.68;;;2.10;99.90;;;2.33;69.51;99574.28;4980673;28;20082;-84
2023/12/01 08:22:43;;;;;;;35.67;15.68;;;2.10;99.90;;;2.36;69.74;99578.38;4987913;28;20051;-84
2023/12/01 08:25:10;;;;;;;33.53;15.85;;;2.10;99.90;;;2.30;69.51;99579.09;4977300;28;20086;-84
2023/12/01 08:27:39;;;;;;;37.75;17.10;;;2.00;99.90;;;2.32;69.61;99591.06;4978751;28;20066;-84
2023/12/01 08:30:10;;;;;;;35.08;16.27;;;2.10;99.90;;;2.32;69.51;99588.44;4979099;28;20046;-84
2023/12/01 08:32:39;;;;;;;36.95;16.40;;;2.10;99.90;;;2.36;69.33;99588.91;4978543;28;20043;-84
2023/12/01 08:35:11;;;;;;;37.50;16.23;;;2.10;99.90;;;2.39;69.34;99593.81;4981260;28;20070;-83
2023/12/01 08:37:38;;;;;;;35.05;16.75;;;2.10;99.90;;;2.34;68.99;99590.88;4997199;28;20050;-84
2023/12/01 08:40:11;;;;;;;36.88;16.20;;;2.10;99.90;;;2.29;69.37;99591.44;4998521;28;20097;-83
2023/12/01 08:42:41;;;;;;;34.70;16.20;;;2.10;99.90;;;2.29;69.65;99594.06;4997048;28;20049;-83
2023/12/01 08:45:11;;;;;;;32.45;15.18;;;2.10;99.90;;;2.35;69.11;99597.78;4980200;28;20098;-83
2023/12/01 08:47:40;;;;;;;37.47;16.38;;;2.10;99.90;;;2.31;69.73;99596.50;4961234;28;20908;-85
2023/12/01 08:50:10;;;;;;;32.03;15.30;;;2.10;99.90;;;2.34;69.44;99601.41;4978071;28;20057;-84
2023/12/01 08:52:38;;;;;;;39.70;17.23;;;2.10;99.90;;;2.34;69.29;99601.41;4979705;28;20101;-84
2023/12/01 08:55:06;;;;;;;32.80;15.43;;;2.10;99.90;;;2.38;69.09;99605.31;4980519;28;20062;-84
2023/12/01 08:57:35;;;;;;;33.20;16.15;;;2.10;99.90;;;2.45;69.49;99610.69;4980159;28;20054;-84
2023/12/01 09:00:07;;;;;;;41.50;17.95;;;2.40;99.90;;;2.45;68.93;99619.41;4993007;28;20495;-84
2023/12/01 09:02:36;;;;;;;33.97;16.17;;;2.20;99.90;;;2.43;68.97;99613.47;4980060;28;20039;-84
2023/12/01 09:05:05;;;;;;;35.47;16.65;;;2.20;99.90;;;2.45;69.03;99613.31;4981275;28;20510;-84
2023/12/01 09:07:32;;;;;;;40.10;18.08;;;2.20;99.90;;;2.43;68.98;99625.81;4985005;28;20049;-84
2023/12/01 09:10:01;;;;;;;43.47;19.25;;;2.20;99.90;;;2.44;69.51;99612.50;4932023;28;20133;-84
2023/12/01 09:12:29;;;;;;;39.63;18.25;;;2.20;99.90;;;2.45;69.50;99624.66;4966103;28;20047;-84
2023/12/01 09:14:56;;;;;;;44.70;19.77;;;2.20;99.90;;;2.47;69.14;99617.38;4997790;28;20046;-84
2023/12/01 09:17:25;;;;;;;41.63;19.20;;;2.20;99.90;;;2.49;69.30;99615.41;4990182;28;20069;-84
2023/12/01 09:19:54;;;;;;;44.60;19.95;;;2.20;99.90;;;2.48;69.45;99619.00;4963625;28;20123;-84
2023/12/01 09:22:21;;;;;;;45.33;19.98;;;2.30;99.90;;;2.50;69.07;99624.13;4979498;28;20113;-84
2023/12/01 09:24:49;;;;;;;51.00;21.20;;;2.30;99.90;;;2.50;69.04;99614.41;4961933;28;20051;-84
2023/12/01 09:27:17;;;;;;;49.53;21.30;;;2.30;99.90;;;2.48;69.15;99618.19;4961049;28;20078;-84
2023/12/01 09:29:44;;;;;;;48.47;21.92;;;2.20;99.90;;;2.48;69.11;99621.66;4988395;28;20055;-84
2023/12/01 09:32:11;;;;;;;51.05;21.85;;;2.50;99.90;;;2.53;69.47;99626.38;4996394;28;20050;-84
2023/12/01 09:34:42;;;;;;;47.28;22.02;;;2.30;99.90;;;2.55;69.68;99622.59;4983309;28;20122;-84
2023/12/01 09:37:12;;;;;;;47.50;22.40;;;2.30;99.90;;;2.56;69.80;99637.38;4976679;28;20046;-85
2023/12/01 09:39:42;;;;;;;55.60;24.65;;;2.30;99.90;;;2.55;69.38;99640.19;4971311;28;20105;-85
2023/12/01 09:42:09;;;;;;;53.88;24.20;;;2.30;99.90;;;2.54;69.15;99638.56;4991182;28;20074;-85
2023/12/01 09:44:37;;;;;;;50.08;22.55;;;2.30;99.90;;;2.55;69.76;99641.00;4963568;28;20042;-85
2023/12/01 09:47:08;;;;;;;53.45;23.77;;;2.30;99.90;;;2.55;69.77;99651.53;4996630;28;20062;-85
2023/12/01 09:49:36;;;;;;;49.20;22.90;;;2.30;99.90;;;2.60;70.04;99644.91;4984374;28;20046;-85
2023/12/01 09:52:04;;;;;;;52.47;23.75;;;2.30;99.90;;;2.60;69.56;99648.38;4978226;28;20129;-83
2023/12/01 09:54:34;;;;;;;50.95;23.70;;;2.30;99.90;;;2.58;69.77;99653.78;4960515;28;20042;-85
2023/12/01 09:57:07;;;;;;;51.10;23.27;;;2.30;99.90;;;2.57;69.26;99659.22;4981149;28;20108;-84
2023/12/01 09:59:37;;;;;;;51.20;23.77;;;2.30;99.90;;;2.46;69.78;99657.88;4981845;28;20396;-84
2023/12/01 10:02:05;;;;;;;54.85;24.35;;;2.20;99.90;;;2.46;69.58;99652.59;4963869;28;20451;-84
2023/12/01 10:04:34;;;;;;;52.47;23.98;;;2.20;99.90;;;2.47;69.92;99650.78;5005092;28;20043;-84
2023/12/01 10:07:04;;;;;;;50.33;24.52;;;2.20;99.90;;;2.43;70.06;99650.31;4988197;28;20046;-84
2023/12/01 10:09:34;;;;;;;50.17;23.70;;;2.20;99.90;;;2.47;69.93;99651.59;4981492;28;20058;-84
2023/12/01 10:12:17;;;;;;;51.83;23.08;;;2.20;99.90;;;2.49;70.09;99649.63;4998598;28;20121;-85
2023/12/01 10:14:49;;;;;;;56.33;24.83;;;2.20;99.90;;;2.49;70.13;99659.31;5003004;28;20047;-83
2023/12/01 10:17:25;;;;;;;51.78;24.17;;;2.20;99.90;;;2.47;69.83;99648.97;4996919;28;20054;-88
2023/12/01 10:19:53;;;;;;;63.50;26.52;;;2.20;99.90;;;2.43;69.62;99654.75;4997296;28;20173;-88
2023/12/01 10:22:24;;;;;;;60.17;26.90;;;2.10;99.90;;;2.39;69.91;99649.06;4995651;28;20050;-88
2023/12/01 10:24:57;;;;;;;;;;;2.10;99.90;;;2.23;69.50;99633.41;4995823;28;20047;-88
2023/12/01 10:27:25;;;;;;;62.58;27.25;;;2.00;99.90;;;2.20;69.97;99646.94;4997295;28;19925;-89